Ladd AAF Airport (FBK)

 

Airport Diagram
Current Weather/Forecast (VFR Conditions)
METAR PAFB 312158Z AUTO 00000KT 10SM CLR M20/M22 A2892 RMK AO2 SLP810 T12011225 $
TAF TAF PAFB 310000Z 3100/0106 VRB06KT 9999 VCSH SCT020 BKN080 620806 QNH2896INS TEMPO 3100/3106 BKN015 620159 BECMG 3105/3106 03006KT 9999 NSW FEW060 FEW120 QNH2879INS TXM13/3117Z TNM22/3102Z LAST NO AMDS AFT 3101 NEXT 0216

All Charts

Inbound Traffic (Arrivals)

No inbound traffic.


Outbound Traffic (Departures)

No outbound traffic.